Terminal Aerodrome Forecast
Issued by NWS Rapid City, SD

Home | Current Version | Previous Version | Graphics & Text | Print | Product List | Glossary On
Versions: 1 2 3 4 5 6 7 8 9 10 11 12 13 14 15
000
FTUS43 KUNR 181100
TAFRAP
TAF
KRAP 181120Z 1812/1912 16005KT 3SM BR OVC004
     FM181500 15008KT P6SM BKN006
     FM181700 19005KT P6SM SCT100=

USA.gov is the U.S. government's official web portal to all federal, state and local government web resources and services.